Terminal Aerodrome Forecast
Issued by NWS

Home | Current Version | Previous Version | Text Only | Print | Product List | Glossary On
Versions: 1 2 3 4 5 6 7 8 9 10 11 12
000
FTUS45 KABQ 142300 RRA
TAFGUP
TAF
KGUP 142342Z 1500/1524 08007KT P6SM VCSH SCT090 BKN140
      TEMPO 1500/1502 VRB17G26KT BKN080
     FM150200 16007KT P6SM VCSH BKN090
     FM150400 VRB05KT P6SM BKN110
     FM152030 VRB06KT P6SM VCSH BKN090=

USA.gov is the U.S. government's official web portal to all federal, state and local government web resources and services.